Terminal Aerodrome Forecast
Issued by NWS

Home | Current Version | Previous Version | Text Only | Print | Product List | Glossary On
Versions: 1 2 3 4 5 6 7 8 9 10 11 12 13 14 15 16 17 18 19 20 21 22 23 24 25 26 27 28
000
FTUS43 KMKX 232107 AAB
TAFUES
TAF AMD
KUES 232107Z 2321/2418 18005KT 6SM -SHRA OVC035
     FM240000 19007KT P6SM OVC035
     FM240400 24004KT 5SM BR OVC020
     FM240900 28004KT 1SM BR BKN005
     FM241500 24004KT P6SM SCT005=

USA.gov is the U.S. government's official web portal to all federal, state and local government web resources and services.